Στοιχεία αεροπορικών μετεωρολογικών δεδομένων METAR     EFOU Oulu Airport
θερμοκρασία
20°C θερμοκρασία
19°C Σημείο δρόσου
94% Υγρασία



Ανεμος
5 MPH
8 KM/H
2 M/S
4 KTS



190°
N
Τρέχουσες συνθήκες

Area καταιγισμός Area καταιγισμός
πίεση 1012.92 (hPa) - 29.91 (inHg)
Ορατότητα 6.2 (μίλι) - 10 (km)
Aεροδρόμιο
Κωδικός αεροδρομίου EFOU

Τοποθεσία: Oulu Airport
Απόσταση: 83 (mi)

Metar:
EFOU 030420Z AUTO 19004KT 160V220 9999 VCSH FEW008 OVC031 //////CB 20/19 Q1013 RESHRA

ώρα: 03-07-2022 07:20 EEST